createdAt,value
2018-03-20T00:04:31.630Z,56.2
2018-03-20T00:14:30.767Z,56.8
2018-03-20T00:24:30.030Z,57.6
2018-03-20T00:34:29.207Z,58.2
2018-03-20T00:44:28.394Z,58.9
2018-03-20T00:54:27.603Z,59.6
2018-03-20T01:04:26.817Z,60.3
2018-03-20T01:14:26.075Z,60.4
2018-03-20T01:24:25.248Z,60.2
2018-03-20T01:34:24.457Z,60.1
2018-03-20T01:44:23.675Z,60
2018-03-20T01:54:22.857Z,59.9
2018-03-20T02:04:22.063Z,59.8
2018-03-20T02:14:21.268Z,59.7
2018-03-20T02:24:20.478Z,59.6
2018-03-20T02:34:19.769Z,59.6
2018-03-20T02:44:18.911Z,59.5
2018-03-20T02:54:18.101Z,59.4
2018-03-20T03:04:17.306Z,59.4
2018-03-20T03:14:16.534Z,59.3
2018-03-20T03:24:15.741Z,59.2
2018-03-20T03:34:14.931Z,59.1
2018-03-20T03:44:14.138Z,59.1
2018-03-20T03:54:13.343Z,59
2018-03-20T04:04:12.553Z,58.9
2018-03-20T04:14:11.757Z,58.9
2018-03-20T04:24:10.984Z,58.8
2018-03-20T04:34:10.190Z,58.8
2018-03-20T04:44:09.386Z,56
2018-03-20T04:54:08.633Z,52.1
2018-03-20T05:04:07.790Z,52
2018-03-20T05:14:07.072Z,49.4
2018-03-20T05:24:06.207Z,48.3
2018-03-20T05:34:05.415Z,47.4
2018-03-20T05:44:04.638Z,47
2018-03-20T05:54:03.845Z,45.9
2018-03-20T06:04:03.067Z,45.1
2018-03-20T06:14:02.281Z,41.9
2018-03-20T06:24:01.517Z,42.4
2018-03-20T06:34:00.702Z,43.6
2018-03-20T06:43:59.888Z,44.6
2018-03-20T06:53:59.104Z,45.6
2018-03-20T07:03:58.307Z,46.6
2018-03-20T07:13:57.516Z,47.4
2018-03-20T07:23:56.746Z,47.9
2018-03-20T07:33:55.938Z,48.7
2018-03-20T07:43:55.141Z,49.4
2018-03-20T07:53:54.374Z,50.1
2018-03-20T08:03:53.581Z,50.8
2018-03-20T08:13:52.791Z,50.9
2018-03-20T08:23:52.000Z,51.3
2018-03-20T08:33:51.202Z,52.2
2018-03-20T08:43:50.414Z,52.4
2018-03-20T08:53:49.623Z,52.9
2018-03-20T09:03:48.815Z,52.9
2018-03-20T09:13:48.019Z,53.9
2018-03-20T09:23:47.229Z,53.9
2018-03-20T09:33:46.441Z,53.9
2018-03-20T09:43:45.687Z,54.3
2018-03-20T09:53:44.907Z,54.4
2018-03-20T10:03:44.066Z,54.5
2018-03-20T10:13:43.293Z,54.6
2018-03-20T10:23:42.532Z,54.8
2018-03-20T10:33:41.711Z,54.8
2018-03-20T10:43:40.904Z,54.9
2018-03-20T10:53:40.160Z,54.9
2018-03-20T11:03:39.317Z,54.9
2018-03-20T11:13:38.523Z,54.9
2018-03-20T11:23:37.730Z,54.9
2018-03-20T11:33:36.959Z,54.9
2018-03-20T11:43:36.152Z,54.9
2018-03-20T11:53:35.380Z,54.9
2018-03-20T12:03:34.564Z,54.9
2018-03-20T12:13:33.772Z,54.9
2018-03-20T12:23:32.989Z,54.9
2018-03-20T12:33:32.190Z,54.9
2018-03-20T12:43:31.399Z,54.9
2018-03-20T12:53:30.603Z,54.9
2018-03-20T13:03:29.860Z,59.3
2018-03-20T13:13:29.068Z,59.3
2018-03-20T13:23:28.309Z,61.6
2018-03-20T13:33:27.501Z,62.6
2018-03-20T13:43:26.706Z,63.4
2018-03-20T13:53:25.843Z,63.8
2018-03-20T14:03:25.050Z,64
2018-03-20T14:13:24.257Z,64
2018-03-20T14:23:23.472Z,63.9
2018-03-20T14:33:22.693Z,63.9
2018-03-20T14:43:21.872Z,63.8
2018-03-20T14:53:21.079Z,63.7
2018-03-20T15:03:20.283Z,63.6
2018-03-20T15:13:19.514Z,63.5
2018-03-20T15:23:18.716Z,63.4
2018-03-20T15:33:17.902Z,63.3
2018-03-20T15:43:17.164Z,63.1
2018-03-20T15:53:16.365Z,63
2018-03-20T16:03:15.527Z,62.8
2018-03-20T16:13:14.750Z,62
2018-03-20T16:23:13.939Z,60.3
2018-03-20T16:33:13.169Z,47.6
2018-03-20T16:43:12.355Z,46.5
2018-03-20T16:53:11.570Z,46.3
2018-03-20T17:03:10.791Z,46.2
2018-03-20T17:13:09.977Z,44.9
2018-03-20T17:23:09.187Z,43.4
2018-03-20T17:33:08.402Z,43.8
2018-03-20T17:43:07.607Z,44.8
2018-03-20T17:53:06.841Z,45.8
2018-03-20T18:03:06.048Z,45.5
2018-03-20T18:13:05.253Z,46.4
2018-03-20T18:23:04.520Z,46.6
2018-03-20T18:33:03.706Z,47.4
2018-03-20T18:43:02.911Z,46.9
2018-03-20T18:53:02.121Z,47.6
2018-03-20T19:03:01.332Z,48.6
2018-03-20T19:13:00.572Z,49.4
2018-03-20T19:22:59.759Z,50.2
2018-03-20T19:32:58.961Z,49.5
2018-03-20T19:42:58.165Z,49.1
2018-03-20T19:52:57.363Z,48
2018-03-20T20:02:56.571Z,47.8
2018-03-20T20:12:55.791Z,48.5
2018-03-20T20:22:54.991Z,49.4
2018-03-20T20:32:54.222Z,50.2
2018-03-20T20:42:53.408Z,50.9
2018-03-20T20:52:52.616Z,51.7
2018-03-20T21:02:51.927Z,52.3
2018-03-20T21:12:51.034Z,53
2018-03-20T21:22:50.241Z,53.8
2018-03-20T21:32:49.474Z,54.6
2018-03-20T21:42:48.659Z,55.3
2018-03-20T21:52:47.870Z,56.1
2018-03-20T22:02:47.096Z,56.8
2018-03-20T22:12:46.281Z,57.5
2018-03-20T22:22:45.509Z,58.3
2018-03-20T22:32:44.702Z,58.9
2018-03-20T22:42:43.904Z,59.7
2018-03-20T22:52:43.112Z,60.4
2018-03-20T23:02:42.328Z,60.6
2018-03-20T23:12:41.547Z,60.4
2018-03-20T23:22:40.756Z,60.3
2018-03-20T23:32:40.009Z,60.2
2018-03-20T23:42:39.197Z,60.1
2018-03-20T23:52:38.352Z,60.1
